Have a Safe July 4th! 

Flight Track Log - Related Links

Times and Time Zones

All times are in EDT time to prevent confusion due to time zone crossing. See the N543PU flight status page for this flight to view local times or setup timezone preferences in your user account.

Time Position Orientation Groundspeed Altitude Reporting Facility
EDT Latitude Longitude Course Direction KTS MPH feet Rate Location/Type
Sun 01:58:27 PM 41.7833 -87.7833 217° Southwest 95 109 1,600  Level Chicago TRACON
Sun 01:59:27 PM 41.7667 -87.8000 217° Southwest 91 105 2,400 750 Climbing Chicago TRACON
Sun 02:00:27 PM 41.7500 -87.8167 217° Southwest 94 108 3,100 750 Climbing Chicago TRACON
Sun 02:01:27 PM 41.7167 -87.8167 180° South 98 113 3,900 850 Climbing Chicago TRACON
Sun 02:02:27 PM 41.7000 -87.8167 180° South 97 112 4,800 950 Climbing Chicago TRACON
Sun 02:03:27 PM 41.6667 -87.8333 200° South 102 117 5,800 771 Climbing Chicago TRACON
Sun 02:05:26 PM 41.6094 -87.8261 175° South 105 121 7,100 431 Climbing Chicago Center
Sun 02:06:28 PM 41.5739 -87.8236 177° South 115 132 7,100 -48 Level Chicago Center
Sun 02:07:30 PM 41.5311 -87.8225 179° South 137 158 7,000 49 Descending Chicago Center
Sun 02:08:31 PM 41.4906 -87.8200 177° South 144 166 7,200 98 Climbing Chicago Center
Sun 02:09:33 PM 41.4417 -87.8172 178° South 146 168 7,200 -48 Level Chicago Center
Sun 02:10:35 PM 41.4008 -87.8003 163° South 153 176 7,100 -48 Descending Chicago Center
Sun 02:11:37 PM 41.3583 -87.7917 171° South 154 177 7,100  Level Chicago Center
Sun 02:12:38 PM 41.3164 -87.7928 181° South 151 174 7,100  Level Chicago Center
Sun 02:13:40 PM 41.2789 -87.7769 162° South 163 188 7,100 -48 Level Chicago Center
Sun 02:14:42 PM 41.2436 -87.7428 144° Southeast 158 182 7,000  Descending Chicago Center
Sun 02:15:44 PM 41.2081 -87.7100 145° Southeast 157 181 7,100 49 Climbing Chicago Center
Sun 02:16:45 PM 41.1681 -87.6678 142° Southeast 155 178 7,100  Level Chicago Center
Sun 02:17:47 PM 41.1328 -87.6339 144° Southeast 155 178 7,100 -48 Level Chicago Center
Sun 02:18:49 PM 41.0969 -87.6000 145° Southeast 158 182 7,000 -48 Descending Chicago Center
Sun 02:19:51 PM 41.0606 -87.5656 144° Southeast 160 184 7,000 76 Level Chicago Center
Sun 02:20:08 PM 41.0472 -87.5525 144° Southeast 159 183 7,100 98 Climbing Chicago Center
Sun 02:20:52 PM 41.0267 -87.5328 144° Southeast 155 178 7,100  Level Chicago Center
Sun 02:21:55 PM 40.9925 -87.4961 141° Southeast 157 181 7,100 48 Level Chicago Center
Sun 02:22:58 PM 40.9533 -87.4544 141° Southeast 154 177 7,200 -293 Climbing Chicago Center
Sun 02:23:58 PM 40.9236 -87.4100 132° Southeast 158 182 6,500 -567 Descending Chicago Center
Sun 02:25:05 PM 40.8928 -87.3561 127° Southeast 161 185 6,000 -435 Descending Chicago Center
Sun 02:26:02 PM 40.8697 -87.3164 127° Southeast 160 184 5,600 -202 Descending Chicago Center
Sun 02:27:04 PM 40.8336 -87.2903 151° Southeast 153 176 5,600  Level Chicago Center
Sun 02:28:06 PM 40.7972 -87.2608 149° Southeast 153 176 5,600  Level Chicago Center
Sun 02:29:07 PM 40.7519 -87.2231 148° Southeast 157 181 5,600  Level Chicago Center
Sun 02:30:09 PM 40.7161 -87.1914 146° Southeast 157 181 5,600  Level Chicago Center
Sun 02:31:09 PM 40.6775 -87.1622 150° Southeast 154 177 5,600  Level Chicago Center
Sun 02:32:13 PM 40.6486 -87.1311 141° Southeast 152 175 5,600  Level Chicago Center

Login

Don't have an account? Register now (free) for customized features, flight alerts, and more!